Time,TemperatureF,DewpointF,PressureIn,WindDirection,WindDirectionDegrees,WindSpeedMPH,WindSpeedGustMPH,Humidity,HourlyPrecipIn,Conditions,Clouds,dailyrainin,SoftwareType,DateUTC
2013-06-27 00:00:00,73.0,70.9,29.71,SSW,207,3.0,3.0,93,0.04,,,0.00,VWS V14.01,2013-06-27 04:00:00,
2013-06-27 00:01:00,72.9,70.8,29.71,SSE,152,3.0,5.0,93,0.04,,,0.00,VWS V14.01,2013-06-27 04:01:00,
2013-06-27 00:07:00,72.7,70.6,29.71,SW,218,0.0,0.0,93,0.00,,,0.00,VWS V14.01,2013-06-27 04:07:00,
2013-06-27 00:12:00,72.6,70.5,29.71,SSE,148,0.0,3.0,93,0.04,,,0.00,VWS V14.01,2013-06-27 04:12:00,
2013-06-27 00:17:00,72.3,70.2,29.71,SSW,198,0.0,0.0,93,0.04,,,0.00,VWS V14.01,2013-06-27 04:17:00,
2013-06-27 00:22:00,72.1,70.0,29.72,SW,228,2.0,5.0,93,0.04,,,0.00,weatherlink.com 1.10,2013-06-27 04:22:00,
2013-06-27 00:27:00,71.9,69.8,29.72,South,190,0.0,0.0,93,0.00,,,0.00,VWS V14.01,2013-06-27 04:27:00,
2013-06-27 00:30:00,72.0,69.9,29.72,South,190,0.0,0.0,93,0.04,,,0.00,VWS V14.01,2013-06-27 04:30:00,
2013-06-27 00:32:00,71.7,69.9,29.72,South,190,0.0,2.0,94,0.04,,,0.00,VWS V14.01,2013-06-27 04:32:00,
2013-06-27 00:37:00,71.6,69.8,29.71,SE,145,0.0,1.0,94,0.04,,,0.00,VWS V14.01,2013-06-27 04:37:00,
2013-06-27 00:43:00,71.4,69.6,29.71,SSW,200,0.0,0.0,94,0.00,,,0.00,VWS V14.01,2013-06-27 04:43:00,
2013-06-27 00:48:00,71.2,69.4,29.71,SSW,212,0.0,0.0,94,0.00,,,0.00,VWS V14.01,2013-06-27 04:48:00,
2013-06-27 00:54:00,71.1,69.3,29.71,SW,217,0.0,0.0,94,0.00,,,0.00,VWS V14.01,2013-06-27 04:54:00,
2013-06-27 00:59:00,70.9,69.1,29.71,SSW,212,1.0,2.0,94,0.00,,,0.00,VWS V14.01,2013-06-27 04:59:00,
2013-06-27 01:00:00,71.0,69.2,29.71,SW,221,2.0,2.0,94,0.04,,,0.00,VWS V14.01,2013-06-27 05:00:00,
2013-06-27 01:04:00,70.8,69.3,29.70,WSW,251,0.0,0.0,95,0.00,,,0.00,VWS V14.01,2013-06-27 05:04:00,
2013-06-27 01:10:00,70.7,69.2,29.70,SW,214,0.0,0.0,95,0.00,,,0.00,VWS V14.01,2013-06-27 05:10:00,
2013-06-27 01:15:00,70.5,69.0,29.70,WSW,252,1.0,1.0,95,0.00,,,0.00,VWS V14.01,2013-06-27 05:15:00,
2013-06-27 01:21:00,70.4,68.9,29.70,South,173,2.0,2.0,95,0.00,,,0.00,VWS V14.01,2013-06-27 05:21:00,
2013-06-27 01:27:00,70.2,69.0,29.70,WNW,291,0.0,3.0,95,0.00,,,0.00,weatherlink.com 1.10,2013-06-27 05:27:00,
2013-06-27 01:42:00,69.9,69.0,29.70,SSW,207,0.0,3.0,95,0.00,,,0.00,weatherlink.com 1.10,2013-06-27 05:42:00,
2013-06-27 01:57:00,69.6,68.0,29.70,South,174,0.0,3.0,95,0.00,,,0.00,weatherlink.com 1.10,2013-06-27 05:57:00,
2013-06-27 02:12:00,69.6,69.0,29.70,West,280,1.0,2.0,96,0.00,,,0.00,weatherlink.com 1.10,2013-06-27 06:12:00,
2013-06-27 02:27:00,69.6,69.0,29.70,West,275,0.0,5.0,96,0.00,,,0.00,weatherlink.com 1.10,2013-06-27 06:27:00,
2013-06-27 02:42:00,69.7,69.0,29.71,SW,232,0.0,4.0,96,0.00,,,0.00,weatherlink.com 1.10,2013-06-27 06:42:00,
2013-06-27 02:57:00,69.9,69.0,29.70,SSW,201,0.0,2.0,97,0.00,,,0.00,weatherlink.com 1.10,2013-06-27 06:57:00,
2013-06-27 03:12:00,70.0,69.0,29.70,SW,231,0.0,2.0,97,0.00,,,0.00,weatherlink.com 1.10,2013-06-27 07:12:00,
2013-06-27 03:27:00,70.1,69.0,29.69,SW,226,0.0,3.0,97,0.00,,,0.00,weatherlink.com 1.10,2013-06-27 07:27:00,
2013-06-27 03:42:00,70.2,69.0,29.69,NW,315,0.0,2.0,97,0.00,,,0.00,weatherlink.com 1.10,2013-06-27 07:42:00,
2013-06-27 03:57:00,70.4,70.0,29.70,SW,217,0.0,2.0,97,0.00,,,0.00,weatherlink.com 1.10,2013-06-27 07:57:00,
2013-06-27 04:12:00,70.5,70.0,29.70,SW,228,1.0,3.0,97,0.00,,,0.00,weatherlink.com 1.10,2013-06-27 08:12:00,
2013-06-27 04:27:00,70.5,70.0,29.70,SW,225,0.0,4.0,97,0.00,,,0.00,weatherlink.com 1.10,2013-06-27 08:27:00,
2013-06-27 04:42:00,70.6,70.0,29.70,WSW,250,0.0,2.0,97,0.00,,,0.00,weatherlink.com 1.10,2013-06-27 08:42:00,
2013-06-27 04:57:00,70.7,70.0,29.70,SW,226,0.0,3.0,98,0.00,,,0.00,weatherlink.com 1.10,2013-06-27 08:57:00,
2013-06-27 05:03:00,70.7,70.1,29.70,WSW,252,0.0,0.0,98,0.00,,,0.00,VWS V14.01,2013-06-27 09:03:00,
2013-06-27 05:09:00,70.7,70.1,29.69,West,267,0.0,0.0,98,0.00,,,0.00,VWS V14.01,2013-06-27 09:09:00,
2013-06-27 05:15:00,70.7,70.1,29.69,WNW,283,0.0,0.0,98,0.00,,,0.00,VWS V14.01,2013-06-27 09:15:00,
2013-06-27 05:20:00,70.7,70.1,29.69,West,274,0.0,3.0,98,0.00,,,0.00,VWS V14.01,2013-06-27 09:20:00,
2013-06-27 05:25:00,70.7,70.1,29.69,WNW,282,2.0,5.0,98,0.00,,,0.00,VWS V14.01,2013-06-27 09:25:00,
2013-06-27 05:30:00,70.7,70.1,29.70,West,260,2.0,3.0,98,0.00,,,0.00,VWS V14.01,2013-06-27 09:30:00,
2013-06-27 05:35:00,70.7,70.1,29.70,WSW,245,0.0,0.0,98,0.00,,,0.00,VWS V14.01,2013-06-27 09:35:00,
2013-06-27 05:40:00,70.7,70.1,29.70,West,265,0.0,1.0,98,0.00,,,0.00,VWS V14.01,2013-06-27 09:40:00,
2013-06-27 05:45:00,70.7,70.1,29.70,SW,236,0.0,0.0,98,0.00,,,0.00,VWS V14.01,2013-06-27 09:45:00,
2013-06-27 05:51:00,70.7,70.1,29.70,West,271,0.0,0.0,98,0.00,,,0.00,VWS V14.01,2013-06-27 09:51:00,
2013-06-27 05:57:00,70.7,70.1,29.70,WNW,302,0.0,0.0,98,0.00,,,0.00,VWS V14.01,2013-06-27 09:57:00,
2013-06-27 06:00:00,70.7,70.1,29.70,WNW,302,0.0,0.0,98,0.00,,,0.00,VWS V14.01,2013-06-27 10:00:00,
2013-06-27 06:02:00,70.7,70.1,29.70,WNW,302,1.0,1.0,98,0.00,,,0.00,VWS V14.01,2013-06-27 10:02:00,
2013-06-27 06:07:00,70.7,70.1,29.71,WNW,298,0.0,1.0,98,0.00,,,0.00,VWS V14.01,2013-06-27 10:07:00,
2013-06-27 06:12:00,70.7,70.1,29.71,WSW,250,0.0,0.0,98,0.00,,,0.00,VWS V14.01,2013-06-27 10:12:00,
2013-06-27 06:17:00,70.7,70.1,29.71,WSW,248,0.0,3.0,98,0.00,,,0.00,VWS V14.01,2013-06-27 10:17:00,
2013-06-27 06:23:00,70.7,70.1,29.71,WSW,239,2.0,2.0,98,0.00,,,0.00,VWS V14.01,2013-06-27 10:23:00,
2013-06-27 06:29:00,70.7,70.1,29.71,WNW,288,0.0,0.0,98,0.00,,,0.00,VWS V14.01,2013-06-27 10:29:00,
2013-06-27 06:35:00,70.7,70.1,29.71,West,271,0.0,0.0,98,0.00,,,0.00,VWS V14.01,2013-06-27 10:35:00,
2013-06-27 06:40:00,70.8,70.2,29.71,WNW,300,0.0,0.0,98,0.00,,,0.00,VWS V14.01,2013-06-27 10:40:00,
2013-06-27 06:45:00,70.7,70.1,29.71,West,277,0.0,2.0,98,0.00,,,0.00,VWS V14.01,2013-06-27 10:45:00,
2013-06-27 06:51:00,70.8,70.0,29.71,SSW,203,0.0,4.0,98,0.00,,,0.00,weatherlink.com 1.10,2013-06-27 10:51:00,
2013-06-27 06:56:00,70.8,70.2,29.71,WNW,291,2.0,2.0,98,0.00,,,0.00,VWS V14.01,2013-06-27 10:56:00,
2013-06-27 07:00:00,70.8,70.2,29.71,WNW,291,2.0,2.0,98,0.00,,,0.00,VWS V14.01,2013-06-27 11:00:00,
2013-06-27 07:01:00,70.8,70.2,29.71,WNW,293,2.0,3.0,98,0.00,,,0.00,VWS V14.01,2013-06-27 11:01:00,
2013-06-27 07:06:00,70.8,70.2,29.71,NNE,27,2.0,2.0,98,0.00,,,0.00,VWS V14.01,2013-06-27 11:06:00,
2013-06-27 07:11:00,70.8,70.2,29.71,NW,307,1.0,3.0,98,0.00,,,0.00,VWS V14.01,2013-06-27 11:11:00,
2013-06-27 07:16:00,70.9,70.3,29.71,WNW,291,0.0,1.0,98,0.00,,,0.00,VWS V14.01,2013-06-27 11:16:00,
2013-06-27 07:23:00,70.9,70.0,29.71,NW,316,0.0,3.0,98,0.00,,,0.00,weatherlink.com 1.10,2013-06-27 11:23:00,
2013-06-27 07:28:00,71.0,70.4,29.72,West,271,0.0,0.0,98,0.00,,,0.00,VWS V14.01,2013-06-27 11:28:00,
2013-06-27 07:30:00,70.9,70.3,29.72,West,271,0.0,0.0,98,0.00,,,0.00,VWS V14.01,2013-06-27 11:30:00,
2013-06-27 07:33:00,71.0,70.4,29.72,WNW,291,0.0,0.0,98,0.00,,,0.00,VWS V14.01,2013-06-27 11:33:00,
2013-06-27 07:38:00,71.1,70.5,29.72,WNW,291,0.0,0.0,98,0.00,,,0.00,VWS V14.01,2013-06-27 11:38:00,
2013-06-27 07:43:00,71.3,70.7,29.72,WNW,291,0.0,0.0,98,0.00,,,0.00,VWS V14.01,2013-06-27 11:43:00,
2013-06-27 07:49:00,71.2,70.6,29.72,North,6,0.0,0.0,98,0.00,,,0.00,VWS V14.01,2013-06-27 11:49:00,
2013-06-27 07:55:00,71.2,71.0,29.72,NNW,345,0.0,3.0,98,0.00,,,0.00,weatherlink.com 1.10,2013-06-27 11:55:00,
2013-06-27 08:00:00,71.3,70.7,29.72,West,266,1.0,1.0,98,0.00,,,0.00,VWS V14.01,2013-06-27 12:00:00,
2013-06-27 08:07:00,71.3,70.7,29.72,NW,316,0.0,0.0,98,0.00,,,0.00,VWS V14.01,2013-06-27 12:07:00,
2013-06-27 08:08:00,71.3,70.7,29.72,NW,316,0.0,0.0,98,0.00,,,0.00,VWS V14.01,2013-06-27 12:08:00,
2013-06-27 08:13:00,71.3,70.7,29.72,WNW,301,0.0,3.0,98,0.00,,,0.00,VWS V14.01,2013-06-27 12:13:00,
2013-06-27 08:19:00,71.4,70.8,29.72,NW,314,0.0,0.0,98,0.00,,,0.00,VWS V14.01,2013-06-27 12:19:00,
2013-06-27 08:26:00,71.7,71.1,29.72,WNW,300,0.0,0.0,98,0.00,,,0.00,VWS V14.01,2013-06-27 12:26:00,
2013-06-27 08:31:00,71.9,71.3,29.72,NW,318,0.0,0.0,98,0.00,,,0.00,VWS V14.01,2013-06-27 12:31:00,
2013-06-27 08:37:00,72.0,71.4,29.72,NW,308,0.0,0.0,98,0.00,,,0.00,VWS V14.01,2013-06-27 12:37:00,
2013-06-27 08:44:00,72.1,72.0,29.72,WNW,302,2.0,3.0,98,0.00,,,0.00,weatherlink.com 1.10,2013-06-27 12:44:00,
2013-06-27 08:49:00,72.1,71.2,29.72,WNW,297,0.0,1.0,97,0.00,,,0.00,VWS V14.01,2013-06-27 12:49:00,
2013-06-27 08:54:00,72.3,71.4,29.72,West,278,0.0,3.0,97,0.00,,,0.00,VWS V14.01,2013-06-27 12:54:00,
2013-06-27 08:59:00,72.6,71.7,29.72,West,274,0.0,2.0,97,0.00,,,0.00,VWS V14.01,2013-06-27 12:59:00,
2013-06-27 09:00:00,72.5,71.6,29.72,WNW,288,0.0,0.0,97,0.00,,,0.00,VWS V14.01,2013-06-27 13:00:00,
2013-06-27 09:04:00,72.7,71.5,29.72,NW,314,0.0,0.0,96,0.00,,,0.00,VWS V14.01,2013-06-27 13:04:00,
2013-06-27 09:09:00,72.7,71.2,29.72,WNW,283,1.0,1.0,95,0.00,,,0.00,VWS V14.01,2013-06-27 13:09:00,
2013-06-27 09:15:00,73.0,71.2,29.72,West,281,3.0,4.0,94,0.00,,,0.00,VWS V14.01,2013-06-27 13:15:00,
2013-06-27 09:19:00,73.2,71.1,29.72,NNW,344,0.0,3.0,93,0.00,,,0.00,VWS V14.01,2013-06-27 13:19:00,
2013-06-27 09:25:00,73.6,71.1,29.72,NNW,330,0.0,3.0,92,0.00,,,0.00,VWS V14.01,2013-06-27 13:25:00,
2013-06-27 09:30:00,73.6,70.8,29.72,NW,316,1.0,3.0,91,0.00,,,0.00,VWS V14.01,2013-06-27 13:30:00,
2013-06-27 09:35:00,73.8,71.0,29.72,NNW,342,0.0,0.0,91,0.00,,,0.00,VWS V14.01,2013-06-27 13:35:00,
2013-06-27 09:41:00,74.0,70.6,29.72,WNW,300,1.0,1.0,89,0.00,,,0.00,VWS V14.01,2013-06-27 13:41:00,
2013-06-27 09:48:00,74.7,70.9,29.72,NW,311,1.0,1.0,88,0.00,,,0.00,VWS V14.01,2013-06-27 13:48:00,
2013-06-27 09:53:00,75.3,71.2,29.73,NW,316,2.0,2.0,87,0.00,,,0.00,VWS V14.01,2013-06-27 13:53:00,
2013-06-27 09:58:00,75.0,70.5,29.73,NW,308,2.0,2.0,86,0.00,,,0.00,VWS V14.01,2013-06-27 13:58:00,
2013-06-27 10:03:00,75.3,70.5,29.73,NNE,15,2.0,2.0,85,0.00,,,0.00,VWS V14.01,2013-06-27 14:03:00,
2013-06-27 10:08:00,76.0,71.5,29.72,WNW,300,0.0,3.0,86,0.00,,,0.00,VWS V14.01,2013-06-27 14:08:00,
2013-06-27 10:13:00,76.3,71.1,29.72,NW,310,1.0,3.0,84,0.00,,,0.00,VWS V14.01,2013-06-27 14:13:00,
2013-06-27 10:18:00,75.7,70.5,29.73,WNW,302,1.0,1.0,84,0.00,,,0.00,VWS V14.01,2013-06-27 14:18:00,
2013-06-27 10:21:00,75.8,71.0,29.72,NW,325,0.0,0.0,85,0.00,,,0.00,VWS V14.01,2013-06-27 14:21:00,
2013-06-27 10:27:00,76.1,70.9,29.72,NW,315,1.0,1.0,84,0.00,,,0.00,VWS V14.01,2013-06-27 14:27:00,
2013-06-27 10:32:00,76.1,70.6,29.73,WNW,293,0.0,1.0,83,0.00,,,0.00,VWS V14.01,2013-06-27 14:32:00,
2013-06-27 10:37:00,77.1,71.5,29.73,NW,305,0.0,2.0,83,0.00,,,0.00,VWS V14.01,2013-06-27 14:37:00,
2013-06-27 10:42:00,77.1,70.5,29.72,WNW,301,0.0,0.0,80,0.00,,,0.00,VWS V14.01,2013-06-27 14:42:00,
2013-06-27 10:48:00,77.5,71.6,29.72,WNW,283,1.0,1.0,82,0.00,,,0.00,VWS V14.01,2013-06-27 14:48:00,
2013-06-27 10:54:00,78.1,72.0,29.73,NNW,327,2.0,3.0,80,0.00,,,0.00,weatherlink.com 1.10,2013-06-27 14:54:00,
2013-06-27 11:00:00,78.2,71.5,29.73,NE,34,2.0,2.0,80,0.00,,,0.00,VWS V14.01,2013-06-27 15:00:00,
2013-06-27 11:01:00,78.4,71.7,29.73,WSW,257,0.0,0.0,80,0.00,,,0.00,VWS V14.01,2013-06-27 15:01:00,
2013-06-27 11:06:00,78.8,71.4,29.73,NW,308,0.0,0.0,78,0.00,,,0.00,VWS V14.01,2013-06-27 15:06:00,
2013-06-27 11:11:00,78.6,70.4,29.73,WNW,290,2.0,6.0,76,0.00,,,0.00,VWS V14.01,2013-06-27 15:11:00,
2013-06-27 11:17:00,78.5,71.4,29.74,SW,224,0.0,0.0,79,0.00,,,0.00,VWS V14.01,2013-06-27 15:17:00,
2013-06-27 11:23:00,78.6,71.2,29.74,WNW,288,0.0,0.0,78,0.00,,,0.00,VWS V14.01,2013-06-27 15:23:00,
2013-06-27 11:28:00,78.7,70.9,29.74,WNW,284,0.0,2.0,77,0.00,,,0.00,VWS V14.01,2013-06-27 15:28:00,
2013-06-27 11:30:00,78.9,71.5,29.74,NNW,335,4.0,4.0,78,0.00,,,0.00,VWS V14.01,2013-06-27 15:30:00,
2013-06-27 11:34:00,79.0,71.2,29.74,WNW,292,1.0,1.0,77,0.00,,,0.00,VWS V14.01,2013-06-27 15:34:00,
2013-06-27 11:39:00,79.5,70.5,29.74,NW,316,2.0,6.0,74,0.00,,,0.00,VWS V14.01,2013-06-27 15:39:00,
2013-06-27 11:44:00,79.0,70.8,29.74,NNE,33,1.0,1.0,76,0.00,,,0.00,VWS V14.01,2013-06-27 15:44:00,
2013-06-27 11:50:00,78.8,70.6,29.74,WNW,293,1.0,1.0,76,0.00,,,0.00,VWS V14.01,2013-06-27 15:50:00,
2013-06-27 11:56:00,79.5,70.9,29.74,West,266,3.0,3.0,75,0.00,,,0.00,VWS V14.01,2013-06-27 15:56:00,
2013-06-27 12:00:00,79.5,70.9,29.74,West,266,3.0,3.0,75,0.00,,,0.00,VWS V14.01,2013-06-27 16:00:00,
2013-06-27 12:01:00,79.8,71.2,29.73,NNW,337,1.0,2.0,75,0.00,,,0.00,VWS V14.01,2013-06-27 16:01:00,
2013-06-27 12:06:00,79.9,70.5,29.73,West,268,1.0,2.0,73,0.00,,,0.00,VWS V14.01,2013-06-27 16:06:00,
2013-06-27 12:11:00,79.8,71.2,29.73,NNW,327,3.0,3.0,75,0.00,,,0.00,VWS V14.01,2013-06-27 16:11:00,
2013-06-27 12:16:00,79.9,70.5,29.73,NNE,18,1.0,3.0,73,0.00,,,0.00,VWS V14.01,2013-06-27 16:16:00,
2013-06-27 12:21:00,80.6,71.6,29.73,ESE,103,0.0,4.0,74,0.00,,,0.00,VWS V14.01,2013-06-27 16:21:00,
2013-06-27 12:26:00,80.8,70.9,29.73,NW,316,2.0,2.0,72,0.00,,,0.00,VWS V14.01,2013-06-27 16:26:00,
2013-06-27 12:32:00,81.1,72.0,29.73,NW,322,3.0,5.0,73,0.00,,,0.00,weatherlink.com 1.10,2013-06-27 16:32:00,
2013-06-27 12:37:00,81.7,71.8,29.74,NW,322,4.0,4.0,72,0.00,,,0.00,VWS V14.01,2013-06-27 16:37:00,
2013-06-27 12:42:00,81.7,71.4,29.73,WNW,300,1.0,4.0,71,0.00,,,0.00,VWS V14.01,2013-06-27 16:42:00,
2013-06-27 12:47:00,81.7,71.8,29.73,NNE,16,4.0,8.0,72,0.00,,,0.00,VWS V14.01,2013-06-27 16:47:00,
2013-06-27 12:53:00,81.6,71.7,29.73,NW,314,1.0,1.0,72,0.00,,,0.00,VWS V14.01,2013-06-27 16:53:00,
2013-06-27 12:58:00,82.3,72.4,29.74,WNW,283,1.0,3.0,72,0.00,,,0.00,VWS V14.01,2013-06-27 16:58:00,
2013-06-27 13:03:00,82.9,72.9,29.73,NNW,327,1.0,2.0,72,0.00,,,0.00,VWS V14.01,2013-06-27 17:03:00,
2013-06-27 13:08:00,82.8,72.4,29.73,NW,305,3.0,4.0,71,0.00,,,0.00,VWS V14.01,2013-06-27 17:08:00,
2013-06-27 13:13:00,82.4,72.1,29.74,WNW,297,1.0,1.0,71,0.00,,,0.00,VWS V14.01,2013-06-27 17:13:00,
2013-06-27 13:19:00,83.1,73.1,29.74,WNW,302,1.0,1.0,72,0.00,,,0.00,VWS V14.01,2013-06-27 17:19:00,
2013-06-27 13:24:00,83.4,72.2,29.74,NW,318,2.0,2.0,69,0.00,,,0.00,VWS V14.01,2013-06-27 17:24:00,
2013-06-27 13:29:00,83.5,72.3,29.74,NW,319,1.0,1.0,69,0.00,,,0.00,VWS V14.01,2013-06-27 17:29:00,
2013-06-27 13:30:00,83.6,71.9,29.74,West,276,3.0,4.0,68,0.00,,,0.00,VWS V14.01,2013-06-27 17:30:00,
2013-06-27 13:36:00,83.6,72.8,29.74,NW,325,2.0,2.0,70,0.00,,,0.00,VWS V14.01,2013-06-27 17:36:00,
2013-06-27 13:41:00,83.4,71.7,29.74,WNW,300,3.0,6.0,68,0.00,,,0.00,VWS V14.01,2013-06-27 17:41:00,
2013-06-27 13:47:00,83.7,72.5,29.74,WSW,250,3.0,3.0,69,0.00,,,0.00,VWS V14.01,2013-06-27 17:47:00,
2013-06-27 13:52:00,84.4,72.7,29.74,NW,308,2.0,2.0,68,0.00,,,0.00,VWS V14.01,2013-06-27 17:52:00,
2013-06-27 13:58:00,84.7,73.8,29.74,NW,311,0.0,0.0,70,0.00,,,0.00,VWS V14.01,2013-06-27 17:58:00,
2013-06-27 14:00:00,84.6,72.0,29.74,NW,312,2.0,2.0,66,0.00,,,0.00,VWS V14.01,2013-06-27 18:00:00,
2013-06-27 14:04:00,84.1,72.0,29.74,WNW,288,1.0,1.0,67,0.00,,,0.00,VWS V14.01,2013-06-27 18:04:00,
2013-06-27 14:09:00,84.1,72.0,29.74,SW,233,0.0,4.0,67,0.00,,,0.00,VWS V14.01,2013-06-27 18:09:00,
2013-06-27 14:14:00,83.9,71.3,29.74,NW,305,3.0,4.0,66,0.00,,,0.00,VWS V14.01,2013-06-27 18:14:00,
2013-06-27 14:20:00,84.2,72.1,29.74,NW,308,1.0,1.0,67,0.00,,,0.00,VWS V14.01,2013-06-27 18:20:00,
2013-06-27 14:25:00,84.7,73.0,29.74,NW,305,0.0,5.0,68,0.00,,,0.00,VWS V14.01,2013-06-27 18:25:00,
2013-06-27 14:30:00,84.8,73.1,29.74,NNE,15,2.0,2.0,68,0.00,,,0.00,VWS V14.01,2013-06-27 18:30:00,
2013-06-27 14:31:00,85.0,71.9,29.74,WNW,291,1.0,1.0,65,0.00,,,0.00,VWS V14.01,2013-06-27 18:31:00,
2013-06-27 14:37:00,84.9,73.2,29.74,West,266,1.0,1.0,68,0.00,,,0.00,VWS V14.01,2013-06-27 18:37:00,
2013-06-27 14:42:00,84.4,71.4,29.74,NW,318,4.0,7.0,65,0.00,,,0.00,VWS V14.01,2013-06-27 18:42:00,
2013-06-27 14:47:00,83.6,71.5,29.74,NNW,335,5.0,5.0,67,0.00,,,0.00,VWS V14.01,2013-06-27 18:47:00,
2013-06-27 14:53:00,83.7,71.1,29.74,North,352,2.0,2.0,66,0.00,,,0.00,VWS V14.01,2013-06-27 18:53:00,
2013-06-27 14:59:00,84.5,72.0,29.74,WNW,296,3.0,7.0,67,0.00,,,0.00,weatherlink.com 1.10,2013-06-27 18:59:00,
2013-06-27 15:04:00,84.5,71.4,29.74,NNW,346,3.0,3.0,65,0.00,,,0.00,VWS V14.01,2013-06-27 19:04:00,
2013-06-27 15:09:00,85.4,73.6,29.74,NW,319,4.0,4.0,68,0.00,,,0.00,VWS V14.01,2013-06-27 19:09:00,
2013-06-27 15:16:00,85.4,72.3,29.74,West,268,2.0,2.0,65,0.00,,,0.00,VWS V14.01,2013-06-27 19:16:00,
2013-06-27 15:22:00,85.4,72.8,29.73,NW,322,0.0,0.0,66,0.00,,,0.00,VWS V14.01,2013-06-27 19:22:00,
2013-06-27 15:27:00,86.2,73.5,29.73,NW,308,2.0,2.0,66,0.00,,,0.00,VWS V14.01,2013-06-27 19:27:00,
2013-06-27 15:32:00,86.0,72.9,29.73,NW,305,4.0,4.0,65,0.00,,,0.00,VWS V14.01,2013-06-27 19:32:00,
2013-06-27 15:37:00,85.5,72.8,29.73,NW,316,2.0,5.0,66,0.00,,,0.00,VWS V14.01,2013-06-27 19:37:00,
2013-06-27 15:42:00,85.3,73.1,29.73,NW,319,2.0,2.0,67,0.00,,,0.00,VWS V14.01,2013-06-27 19:42:00,
2013-06-27 15:48:00,84.9,74.0,29.73,NW,325,2.0,8.0,69,0.00,,,0.00,weatherlink.com 1.10,2013-06-27 19:48:00,
2013-06-27 15:53:00,85.3,74.4,29.73,NW,319,2.0,2.0,70,0.00,,,0.00,VWS V14.01,2013-06-27 19:53:00,
2013-06-27 15:59:00,85.4,72.3,29.73,WSW,250,1.0,1.0,65,0.00,,,0.00,VWS V14.01,2013-06-27 19:59:00,
2013-06-27 16:06:00,84.9,72.7,29.73,NW,310,2.0,2.0,67,0.00,,,0.00,VWS V14.01,2013-06-27 20:06:00,
2013-06-27 16:12:00,85.3,73.1,29.73,NNE,32,2.0,2.0,67,0.00,,,0.00,VWS V14.01,2013-06-27 20:12:00,
2013-06-27 16:17:00,85.1,72.9,29.73,NNE,22,7.0,7.0,67,0.00,,,0.00,VWS V14.01,2013-06-27 20:17:00,
2013-06-27 16:23:00,85.8,73.1,29.73,NW,325,1.0,1.0,66,0.00,,,0.00,VWS V14.01,2013-06-27 20:23:00,
2013-06-27 16:28:00,86.3,73.6,29.72,NW,322,1.0,6.0,66,0.00,,,0.00,VWS V14.01,2013-06-27 20:28:00,
2013-06-27 16:34:00,85.8,73.6,29.72,NW,307,0.0,0.0,67,0.00,,,0.00,VWS V14.01,2013-06-27 20:34:00,
2013-06-27 16:40:00,85.9,72.8,29.72,NW,314,0.0,0.0,65,0.00,,,0.00,VWS V14.01,2013-06-27 20:40:00,
2013-06-27 16:45:00,86.0,73.8,29.72,WNW,293,1.0,2.0,67,0.00,,,0.00,VWS V14.01,2013-06-27 20:45:00,
2013-06-27 16:51:00,86.4,74.0,29.71,West,273,1.0,4.0,66,0.00,,,0.00,weatherlink.com 1.10,2013-06-27 20:51:00,
2013-06-27 16:56:00,86.5,73.8,29.70,NW,305,1.0,1.0,66,0.00,,,0.00,VWS V14.01,2013-06-27 20:56:00,
2013-06-27 17:00:00,86.5,73.8,29.70,WNW,302,0.0,1.0,66,0.00,,,0.00,VWS V14.01,2013-06-27 21:00:00,
2013-06-27 17:01:00,87.1,73.4,29.70,NNW,335,1.0,4.0,64,0.00,,,0.00,VWS V14.01,2013-06-27 21:01:00,
2013-06-27 17:07:00,87.3,72.7,29.70,NW,310,7.0,7.0,62,0.00,,,0.00,VWS V14.01,2013-06-27 21:07:00,
2013-06-27 17:13:00,87.6,74.4,29.70,West,260,2.0,2.0,65,0.00,,,0.00,VWS V14.01,2013-06-27 21:13:00,
2013-06-27 17:18:00,87.9,73.7,29.70,NNW,327,1.0,4.0,63,0.00,,,0.00,VWS V14.01,2013-06-27 21:18:00,
2013-06-27 17:23:00,88.4,74.7,29.69,WNW,294,1.0,3.0,64,0.00,,,0.00,VWS V14.01,2013-06-27 21:23:00,
2013-06-27 17:30:00,88.8,73.6,29.69,West,262,1.0,1.0,61,0.00,,,0.00,VWS V14.01,2013-06-27 21:30:00,
2013-06-27 17:31:00,89.0,73.8,29.69,NW,318,3.0,3.0,61,0.00,,,0.00,VWS V14.01,2013-06-27 21:31:00,
2013-06-27 17:37:00,88.1,73.9,29.70,WSW,253,2.0,2.0,63,0.00,,,0.00,VWS V14.01,2013-06-27 21:37:00,
2013-06-27 17:43:00,88.3,74.6,29.69,WNW,288,1.0,1.0,64,0.00,,,0.00,VWS V14.01,2013-06-27 21:43:00,
2013-06-27 17:48:00,88.4,74.2,29.69,SE,132,4.0,4.0,63,0.00,,,0.00,VWS V14.01,2013-06-27 21:48:00,
2013-06-27 17:54:00,87.7,74.0,29.69,West,266,0.0,3.0,64,0.00,,,0.00,VWS V14.01,2013-06-27 21:54:00,
2013-06-27 17:59:00,87.0,73.8,29.72,NNW,343,7.0,8.0,65,0.00,,,0.00,VWS V14.01,2013-06-27 21:59:00,
2013-06-27 18:00:00,87.5,74.8,29.69,NW,311,3.0,3.0,66,0.00,,,0.00,VWS V14.01,2013-06-27 22:00:00,
2013-06-27 18:05:00,80.5,69.0,29.69,NW,305,4.0,4.0,68,0.05,,,0.05,VWS V14.01,2013-06-27 22:05:00,
2013-06-27 18:10:00,75.9,68.2,29.69,North,352,0.0,6.0,77,0.08,,,0.08,VWS V14.01,2013-06-27 22:10:00,
2013-06-27 18:15:00,74.9,69.4,29.69,West,276,0.0,6.0,83,0.08,,,0.08,VWS V14.01,2013-06-27 22:15:00,
2013-06-27 18:20:00,75.0,70.5,29.69,NNE,30,0.0,1.0,86,0.08,,,0.08,VWS V14.01,2013-06-27 22:20:00,
2013-06-27 18:25:00,75.7,71.6,29.68,South,177,0.0,0.0,87,0.00,,,0.08,VWS V14.01,2013-06-27 22:25:00,
2013-06-27 18:30:00,77.2,72.0,29.68,SE,142,0.0,0.0,84,0.08,,,0.08,VWS V14.01,2013-06-27 22:30:00,
2013-06-27 18:37:00,78.7,73.5,29.68,SE,142,0.0,0.0,84,0.00,,,0.08,VWS V14.01,2013-06-27 22:37:00,
2013-06-27 18:43:00,80.1,73.4,29.68,SSE,158,0.0,0.0,80,0.00,,,0.08,VWS V14.01,2013-06-27 22:43:00,
2013-06-27 18:48:00,79.9,72.1,29.68,SSE,162,0.0,0.0,77,0.08,,,0.08,VWS V14.01,2013-06-27 22:48:00,
2013-06-27 18:53:00,80.0,72.9,29.68,SSE,162,0.0,0.0,79,0.08,,,0.08,VWS V14.01,2013-06-27 22:53:00,
2013-06-27 18:58:00,79.7,72.2,29.68,SSE,162,0.0,0.0,78,0.08,,,0.08,VWS V14.01,2013-06-27 22:58:00,
2013-06-27 19:03:00,79.4,73.1,29.68,SSE,162,0.0,0.0,81,0.08,,,0.08,VWS V14.01,2013-06-27 23:03:00,
2013-06-27 19:08:00,79.1,72.4,29.68,SSE,162,0.0,0.0,80,0.08,,,0.08,VWS V14.01,2013-06-27 23:08:00,
2013-06-27 19:13:00,79.2,72.1,29.67,SSE,158,0.0,0.0,79,0.00,,,0.08,VWS V14.01,2013-06-27 23:13:00,
2013-06-27 19:19:00,79.5,70.9,29.67,SSE,153,0.0,0.0,75,0.00,,,0.08,VWS V14.01,2013-06-27 23:19:00,
2013-06-27 19:24:00,79.4,71.6,29.66,SSE,153,0.0,0.0,77,0.08,,,0.08,VWS V14.01,2013-06-27 23:24:00,
2013-06-27 19:29:00,79.2,71.4,29.66,SSE,153,0.0,0.0,77,0.00,,,0.08,VWS V14.01,2013-06-27 23:29:00,
2013-06-27 19:35:00,79.2,72.0,29.66,SSE,153,0.0,0.0,78,0.00,,,0.08,weatherlink.com 1.10,2013-06-27 23:35:00,
2013-06-27 19:40:00,79.9,71.3,29.66,South,174,0.0,0.0,75,0.08,,,0.08,VWS V14.01,2013-06-27 23:40:00,
2013-06-27 19:45:00,80.5,70.7,29.66,SSW,203,0.0,0.0,72,0.08,,,0.08,VWS V14.01,2013-06-27 23:45:00,
2013-06-27 19:50:00,80.9,71.0,29.65,SSW,200,0.0,0.0,72,0.00,,,0.08,VWS V14.01,2013-06-27 23:50:00,
2013-06-27 19:56:00,81.2,71.3,29.65,SSW,200,0.0,0.0,72,0.08,,,0.08,VWS V14.01,2013-06-27 23:56:00,
2013-06-27 20:00:00,81.2,71.3,29.65,SSW,200,0.0,0.0,72,0.08,,,0.08,VWS V14.01,2013-06-28 00:00:00,
2013-06-27 20:03:00,81.3,71.4,29.65,West,264,0.0,0.0,72,0.00,,,0.08,VWS V14.01,2013-06-28 00:03:00,
2013-06-27 20:08:00,81.1,71.2,29.65,SSE,160,0.0,0.0,72,0.00,,,0.08,VWS V14.01,2013-06-28 00:08:00,
2013-06-27 20:13:00,81.1,71.2,29.65,South,170,0.0,0.0,72,0.00,,,0.08,VWS V14.01,2013-06-28 00:13:00,
2013-06-27 20:18:00,81.1,71.2,29.65,South,177,0.0,2.0,72,0.00,,,0.08,VWS V14.01,2013-06-28 00:18:00,
2013-06-27 20:23:00,81.2,71.7,29.66,West,264,0.0,0.0,73,0.00,,,0.08,VWS V14.01,2013-06-28 00:23:00,
2013-06-27 20:29:00,81.7,72.2,29.66,SW,221,0.0,1.0,73,0.00,,,0.08,VWS V14.01,2013-06-28 00:29:00,
2013-06-27 20:30:00,81.5,72.0,29.66,SSW,195,0.0,0.0,73,0.00,,,0.08,VWS V14.01,2013-06-28 00:30:00,
2013-06-27 20:34:00,81.7,72.2,29.66,SE,135,0.0,0.0,73,0.00,,,0.08,VWS V14.01,2013-06-28 00:34:00,
2013-06-27 20:39:00,81.6,72.1,29.66,South,174,0.0,1.0,73,0.00,,,0.08,VWS V14.01,2013-06-28 00:39:00,
2013-06-27 20:44:00,81.6,72.1,29.65,SE,140,0.0,0.0,73,0.00,,,0.08,VWS V14.01,2013-06-28 00:44:00,
2013-06-27 20:50:00,81.6,72.1,29.65,SSE,155,0.0,0.0,73,0.00,,,0.08,VWS V14.01,2013-06-28 00:50:00,
2013-06-27 20:56:00,81.6,72.1,29.65,SSE,162,0.0,0.0,73,0.00,,,0.08,VWS V14.01,2013-06-28 00:56:00,
2013-06-27 21:00:00,81.6,72.1,29.65,SSE,162,0.0,0.0,73,0.00,,,0.08,VWS V14.01,2013-06-28 01:00:00,
2013-06-27 21:01:00,81.5,72.4,29.65,SSE,164,0.0,0.0,74,0.00,,,0.08,VWS V14.01,2013-06-28 01:01:00,
2013-06-27 21:06:00,81.4,72.3,29.65,SSE,165,0.0,0.0,74,0.00,,,0.08,VWS V14.01,2013-06-28 01:06:00,
2013-06-27 21:12:00,81.3,72.2,29.65,SSE,165,0.0,0.0,74,0.00,,,0.08,VWS V14.01,2013-06-28 01:12:00,
2013-06-27 21:17:00,81.3,71.8,29.65,NW,305,0.0,1.0,73,0.00,,,0.08,VWS V14.01,2013-06-28 01:17:00,
2013-06-27 21:25:00,81.3,71.0,29.64,NW,319,0.0,0.0,71,0.00,,,0.08,VWS V14.01,2013-06-28 01:25:00,
2013-06-27 21:30:00,81.3,71.0,29.64,West,264,0.0,0.0,71,0.00,,,0.08,VWS V14.01,2013-06-28 01:30:00,
2013-06-27 21:32:00,81.3,70.6,29.64,West,274,0.0,0.0,70,0.00,,,0.08,VWS V14.01,2013-06-28 01:32:00,
2013-06-27 21:37:00,81.2,70.1,29.63,West,266,0.0,0.0,69,0.00,,,0.08,VWS V14.01,2013-06-28 01:37:00,
2013-06-27 21:43:00,80.9,69.8,29.64,NW,319,2.0,2.0,69,0.00,,,0.08,VWS V14.01,2013-06-28 01:43:00,
2013-06-27 21:49:00,80.6,69.5,29.64,West,269,1.0,1.0,69,0.00,,,0.08,VWS V14.01,2013-06-28 01:49:00,
2013-06-27 21:55:00,80.3,69.2,29.64,NNW,330,0.0,0.0,69,0.00,,,0.08,VWS V14.01,2013-06-28 01:55:00,
2013-06-27 22:00:00,80.2,69.1,29.63,WNW,300,0.0,0.0,69,0.00,,,0.08,VWS V14.01,2013-06-28 02:00:00,
2013-06-27 22:05:00,80.1,69.0,29.64,NNE,27,0.0,0.0,69,0.00,,,0.08,VWS V14.01,2013-06-28 02:05:00,
2013-06-27 22:12:00,79.9,68.8,29.64,West,278,0.0,0.0,69,0.00,,,0.08,VWS V14.01,2013-06-28 02:12:00,
2013-06-27 22:17:00,79.9,68.8,29.64,West,267,0.0,5.0,69,0.00,,,0.08,VWS V14.01,2013-06-28 02:17:00,
2013-06-27 22:23:00,79.8,68.7,29.64,NW,310,1.0,1.0,69,0.00,,,0.08,VWS V14.01,2013-06-28 02:23:00,
2013-06-27 22:29:00,79.8,68.7,29.64,WNW,291,0.0,2.0,69,0.00,,,0.08,VWS V14.01,2013-06-28 02:29:00,
2013-06-27 22:30:00,79.8,68.7,29.64,NNW,327,0.0,3.0,69,0.00,,,0.08,VWS V14.01,2013-06-28 02:30:00,
2013-06-27 22:35:00,79.7,69.0,29.64,WSW,242,1.0,4.0,69,0.00,,,0.08,weatherlink.com 1.10,2013-06-28 02:35:00,
2013-06-27 22:41:00,79.4,68.8,29.64,SSW,200,0.0,0.0,70,0.00,,,0.08,VWS V14.01,2013-06-28 02:41:00,
2013-06-27 22:47:00,79.0,68.8,29.64,WSW,250,0.0,0.0,71,0.00,,,0.08,VWS V14.01,2013-06-28 02:47:00,
2013-06-27 22:52:00,78.8,68.6,29.64,NW,311,0.0,0.0,71,0.00,,,0.08,VWS V14.01,2013-06-28 02:52:00,
2013-06-27 22:59:00,78.6,68.8,29.64,West,278,1.0,1.0,72,0.00,,,0.08,VWS V14.01,2013-06-28 02:59:00,
2013-06-27 23:00:00,78.6,68.8,29.64,North,352,0.0,0.0,72,0.00,,,0.08,VWS V14.01,2013-06-28 03:00:00,
2013-06-27 23:05:00,78.6,68.8,29.64,West,281,0.0,0.0,72,0.00,,,0.08,VWS V14.01,2013-06-28 03:05:00,
2013-06-27 23:12:00,78.4,68.6,29.64,WSW,257,0.0,0.0,72,0.00,,,0.08,VWS V14.01,2013-06-28 03:12:00,
2013-06-27 23:17:00,78.3,68.9,29.63,SW,235,0.0,0.0,73,0.00,,,0.08,VWS V14.01,2013-06-28 03:17:00,
2013-06-27 23:22:00,78.0,68.7,29.64,WSW,246,0.0,0.0,73,0.00,,,0.08,VWS V14.01,2013-06-28 03:22:00,
2013-06-27 23:28:00,77.9,68.9,29.64,WSW,249,0.0,0.0,74,0.00,,,0.08,VWS V14.01,2013-06-28 03:28:00,
2013-06-27 23:30:00,77.9,68.9,29.64,WNW,302,0.0,0.0,74,0.00,,,0.08,VWS V14.01,2013-06-28 03:30:00,
2013-06-27 23:34:00,77.7,68.8,29.64,WNW,298,0.0,1.0,74,0.00,,,0.08,VWS V14.01,2013-06-28 03:34:00,
2013-06-27 23:39:00,77.6,69.1,29.64,WNW,291,0.0,0.0,75,0.00,,,0.08,VWS V14.01,2013-06-28 03:39:00,
2013-06-27 23:44:00,77.4,69.2,29.64,NW,311,0.0,0.0,76,0.00,,,0.08,VWS V14.01,2013-06-28 03:44:00,
2013-06-27 23:50:00,77.2,69.1,29.64,WNW,298,0.0,0.0,76,0.00,,,0.08,VWS V14.01,2013-06-28 03:50:00,
2013-06-27 23:55:00,77.0,69.2,29.64,WNW,295,2.0,2.0,77,0.00,,,0.08,VWS V14.01,2013-06-28 03:55:00,